Latest Weather Observations for Campbelltown

IDN60801

Issued at 2:35 pm EDT Saturday 1 November 2014 (issued every 30 minutes, with the page automatically refreshed every 10 minutes)

About weather observations | Map of weather stations | Latest weather observations for NSW | Other Formats
Station Details ID: 068257 Name: CAMPBELLTOWN (MOUNT ANNAN) Lat: -34.06 Lon: 150.77 Height: 112.0 m
Data from the previous 72 hours. | See also: Recent months at Campbelltown
Date/Time
EDT
Temp
°C
App
Temp
°C
Dew
Point
Rel
Hum
%
Delta-T
°C
Wind Press
QNH
hPa
Press
MSL
hPa
Rain
since 9 am
mm
Dir
 
Spd
km/h
Gust
km/h
Spd
kts
Gust
kts
01/02:30pm 28.7 23.0 13.0 38 9.3 NNW 35 61 19 33 - - 0.0
01/02:24pm 31.8 26.8 12.1 30 11.7 NNW 30 61 16 33 - - 0.0
01/02:00pm 33.8 30.1 12.7 27 12.7 NNW 24 37 13 20 - - 0.0
01/01:30pm 33.9 31.0 12.8 28 12.7 NW 20 37 11 20 - - 0.0
01/01:00pm 33.2 28.8 11.7 27 12.7 WNW 26 41 14 22 - - 0.0
01/12:33pm 34.1 29.4 11.9 26 13.2 NW 28 46 15 25 - - 0.0
01/12:30pm 34.4 29.2 11.5 25 13.6 NW 30 46 16 25 - - 0.0
01/12:01pm 33.8 29.3 12.7 27 12.7 NW 28 46 15 25 - - 0.0
01/12:00pm 33.9 29.5 11.7 26 13.2 NNW 26 46 14 25 - - 0.0
01/11:55am 34.0 29.4 12.4 27 13.0 NNW 28 46 15 25 - - 0.0
01/11:30am 33.1 29.0 12.7 29 12.2 NW 26 43 14 23 - - 0.0
01/11:00am 32.5 28.6 12.2 29 12.1 WNW 24 43 13 23 - - 0.0
01/10:30am 31.2 28.8 12.5 31 11.1 NNW 17 26 9 14 - - 0.0
01/10:00am 30.0 26.8 12.0 33 10.6 N 20 26 11 14 - - 0.0
01/09:30am 29.6 27.5 12.5 35 10.1 NNW 15 24 8 13 - - 0.0
01/09:00am 28.6 26.7 12.9 38 9.3 N 15 22 8 12 - - -
01/08:30am 26.9 24.7 12.2 40 8.5 N 15 24 8 13 - - -
01/08:00am 26.1 24.3 12.2 42 8.0 N 13 19 7 10 - - -
01/07:30am 23.3 23.6 14.6 58 5.2 N 6 7 3 4 - - -
01/07:00am 19.7 21.4 15.1 75 2.7 NE 0 0 0 0 - - -
01/06:30am 15.6 16.3 12.2 80 1.9 CALM 0 0 0 0 - - -
01/06:00am 14.9 15.4 11.5 80 1.8 CALM 0 0 0 0 - - -
01/05:30am 15.2 15.6 11.2 77 2.1 SSW 0 0 0 0 - - -
01/05:00am 16.5 15.8 11.4 72 2.8 SSW 6 9 3 5 - - -
01/04:30am 16.0 16.3 11.0 72 2.7 CALM 0 6 0 3 - - -
01/04:00am 16.1 16.1 11.3 73 2.6 S 2 11 1 6 - - -
01/03:30am 15.9 15.1 11.1 73 2.6 SSW 6 9 3 5 - - -
01/03:00am 17.9 18.1 11.9 68 3.3 S 2 7 1 4 - - -
01/02:00am 18.1 18.9 12.5 70 3.1 CALM 0 0 0 0 - - 0.0
01/01:30am 17.9 17.7 11.9 68 3.3 S 4 9 2 5 - - 0.0
01/01:00am 18.0 18.6 12.0 68 3.3 CALM 0 0 0 0 - - 0.0
01/12:30am 19.1 19.7 11.9 63 4.0 CALM 0 0 0 0 - - 0.0
01/12:00am 19.6 20.0 11.1 58 4.7 S 0 0 0 0 - - 0.0
 
Date/Time
EDT
Temp
°C
App
Temp
°C
Dew
Point
Rel
Hum
%
Delta-T
°C
Wind Press
QNH
hPa
Press
MSL
hPa
Rain
since 9 am
mm
Dir
 
Spd
km/h
Gust
km/h
Spd
kts
Gust
kts
31/11:30pm 20.4 20.1 10.2 52 5.5 S 2 6 1 3 - - 0.0
31/11:00pm 20.3 19.6 10.1 52 5.5 S 4 7 2 4 - - 0.0
31/10:30pm 20.5 20.3 10.6 53 5.4 S 2 6 1 3 - - 0.0
31/10:00pm 20.9 19.9 10.4 51 5.7 SSW 6 6 3 3 - - 0.0
31/09:30pm 20.1 19.0 9.9 52 5.5 SSW 6 6 3 3 - - 0.0
31/09:00pm 20.7 20.6 9.3 48 6.1 CALM 0 0 0 0 - - 0.0
31/08:30pm 21.9 21.7 9.1 44 6.9 CALM 0 0 0 0 - - 0.0
31/08:00pm 24.6 23.0 8.1 35 8.8 E 6 9 3 5 - - 0.0
31/07:30pm 25.9 23.7 8.0 32 9.6 ENE 9 15 5 8 - - 0.0
31/07:00pm 27.2 24.9 7.6 29 10.5 ENE 9 15 5 8 - - 0.0
31/06:30pm 28.8 25.7 7.4 26 11.6 ENE 13 20 7 11 - - 0.0
31/06:00pm 28.9 26.0 6.3 24 12.0 ENE 11 26 6 14 - - 0.0
31/05:30pm 31.0 27.1 5.4 20 13.5 ENE 15 28 8 15 - - 0.0
31/05:00pm 32.0 29.0 7.6 22 13.5 NE 13 19 7 10 - - 0.0
31/04:30pm 31.5 28.0 7.2 22 13.3 NE 15 24 8 13 - - 0.0
31/04:00pm 33.6 30.2 9.0 22 14.0 NE 17 28 9 15 - - 0.0
31/03:30pm 34.4 31.0 4.0 15 16.0 NNE 11 19 6 10 - - 0.0
31/03:00pm 33.7 29.8 3.5 15 15.7 N 13 24 7 13 - - 0.0
31/02:30pm 34.0 31.0 1.7 13 16.4 NNE 7 15 4 8 - - 0.0
31/02:00pm 33.8 29.6 3.6 15 15.8 NNE 15 22 8 12 - - 0.0
31/01:30pm 33.0 29.0 2.9 15 15.5 N 13 24 7 13 - - 0.0
31/01:00pm 33.0 29.9 7.1 20 14.2 N 13 24 7 13 - - 0.0
31/12:30pm 31.4 28.1 6.5 21 13.4 N 13 24 7 13 - - 0.0
31/12:00pm 30.8 28.6 10.7 29 11.6 NNE 13 20 7 11 - - 0.0
31/11:30am 29.3 26.8 8.4 27 11.5 N 11 20 6 11 - - 0.0
31/11:00am 28.0 26.4 10.2 33 10.0 NNE 9 15 5 8 - - 0.0
31/10:30am 26.1 24.5 8.6 33 9.5 NNW 7 11 4 6 - - 0.0
31/10:00am 24.3 22.5 7.9 35 8.7 NW 7 11 4 6 - - 0.0
31/09:30am 22.9 22.1 9.7 43 7.2 WSW 4 9 2 5 - - 0.0
31/09:00am 20.8 19.7 10.0 50 5.9 WSW 6 11 3 6 - - 0.0
31/08:30am 19.9 20.1 11.9 60 4.5 S 2 7 1 4 - - 0.0
31/08:00am 17.5 17.0 10.9 65 3.6 S 4 7 2 4 - - 0.0
31/07:30am 15.4 14.4 10.4 72 2.6 S 6 9 3 5 - - 0.0
31/07:00am 12.0 11.3 10.2 89 0.9 S 4 7 2 4 - - 0.0
31/06:30am 10.5 10.3 8.9 90 0.8 CALM 0 6 0 3 - - 0.0
31/06:00am 10.9 10.7 9.0 88 0.9 CALM 0 0 0 0 - - 0.0
31/05:30am 11.0 10.7 8.6 85 1.2 CALM 0 0 0 0 - - 0.0
31/05:00am 12.1 11.9 9.1 82 1.5 CALM 0 4 0 2 - - 0.0
31/04:30am 12.6 11.2 8.7 77 2.0 S 6 9 3 5 - - 0.0
31/04:00am 13.2 11.8 8.9 75 2.2 S 6 9 3 5 - - 0.0
31/03:30am 14.0 12.0 8.8 71 2.6 S 9 13 5 7 - - 0.0
31/03:00am 14.5 12.6 9.1 70 2.8 SSW 9 17 5 9 - - 0.0
31/02:30am 14.1 12.2 9.1 72 2.6 SSW 9 13 5 7 - - 0.0
31/02:00am 13.2 11.5 8.5 73 2.4 SSW 7 11 4 6 - - 0.0
31/01:30am 13.3 11.7 8.8 74 2.3 SSW 7 9 4 5 - - 0.0
31/01:00am 14.2 13.6 8.8 70 2.7 SSW 2 7 1 4 - - 0.0
31/12:30am 14.6 13.2 9.6 72 2.6 SSW 7 9 4 5 - - 0.0
31/12:00am 14.0 13.2 9.6 75 2.3 S 4 7 2 4 - - 0.0
 
Date/Time
EDT
Temp
°C
App
Temp
°C
Dew
Point
Rel
Hum
%
Delta-T
°C
Wind Press
QNH
hPa
Press
MSL
hPa
Rain
since 9 am
mm
Dir
 
Spd
km/h
Gust
km/h
Spd
kts
Gust
kts
30/11:30pm 14.3 14.3 9.7 74 2.4 CALM 0 6 0 3 - - 0.0
30/11:00pm 15.0 13.9 10.0 72 2.6 S 6 7 3 4 - - 0.0
30/10:30pm 15.6 14.4 9.7 68 3.1 S 6 7 3 4 - - 0.0
30/10:00pm 16.3 15.7 9.0 62 3.8 S 2 7 1 4 - - 0.0
30/09:30pm 18.7 17.2 9.2 54 5.0 SSE 7 11 4 6 - - 0.0
30/09:00pm 19.7 17.9 9.3 51 5.5 SE 9 13 5 7 - - 0.0
30/08:30pm 20.6 18.9 9.8 50 5.8 SE 9 15 5 8 - - 0.0
30/08:00pm 21.6 19.5 9.8 47 6.4 ESE 11 17 6 9 - - 0.0
30/07:30pm 23.0 20.3 9.0 41 7.5 ESE 13 19 7 10 - - 0.0
30/07:00pm 25.1 22.3 8.6 35 8.9 ESE 13 20 7 11 - - 0.0
30/06:58pm 25.1 22.3 8.6 35 8.9 ESE 13 20 7 11 - - 0.0
30/06:30pm 30.2 27.5 2.5 17 13.9 SSW 6 9 3 5 - - 0.0
30/06:00pm 30.6 27.2 1.9 16 14.3 SSW 9 17 5 9 - - 0.0
30/05:30pm 30.9 27.9 2.2 16 14.4 SSW 7 22 4 12 - - 0.0
30/05:00pm 31.2 27.9 2.4 16 14.5 WSW 9 17 5 9 - - 0.0
30/04:30pm 30.7 28.1 4.4 19 13.7 NNW 7 17 4 9 - - 0.0
30/04:00pm 30.2 27.0 3.3 18 13.7 NNW 9 17 5 9 - - 0.0
30/03:30pm 29.9 25.9 3.0 18 13.6 WNW 13 24 7 13 - - 0.0
30/03:00pm 30.2 27.3 4.8 20 13.2 WNW 9 20 5 11 - - 0.0
30/02:30pm 29.2 25.4 3.9 20 12.9 WNW 13 20 7 11 - - 0.0
30/02:00pm 28.5 26.4 6.6 25 11.7 W 7 19 4 10 - - 0.0
30/01:30pm 27.5 24.3 6.8 27 11.0 NW 13 19 7 10 - - 0.0
30/01:00pm 27.5 25.6 8.9 31 10.2 NW 9 17 5 9 - - 0.0
30/12:30pm 26.2 22.9 6.3 28 10.4 NW 13 20 7 11 - - 0.0
30/12:00pm 26.4 22.6 5.9 27 10.7 NW 15 28 8 15 - - 0.0
30/11:30am 26.0 22.9 8.9 34 9.3 NNW 15 24 8 13 - - 0.0
30/11:00am 25.0 22.8 9.3 37 8.6 WNW 11 17 6 9 - - 0.0
30/10:30am 24.1 23.4 13.3 51 6.3 N 9 15 5 8 - - 0.0
30/10:00am 22.8 22.2 12.4 52 5.9 N 7 11 4 6 - - 0.0
30/09:30am 22.1 22.7 15.2 65 4.1 N 6 9 3 5 - - 0.0
30/09:00am 19.4 20.0 14.2 72 3.0 SW 4 9 2 5 - - 0.0
30/08:30am 18.0 18.2 14.7 81 1.9 SW 7 11 4 6 - - 0.0
30/08:00am 16.6 17.1 15.5 93 0.6 S 7 11 4 6 - - 0.0
30/07:30am 15.1 15.6 14.9 99 0.1 SSW 6 9 3 5 - - 0.0
30/07:00am 12.7 13.5 12.5 99 0.1 CALM 0 0 0 0 - - 0.0
30/06:30am 11.3 11.7 11.1 99 0.1 CALM 0 0 0 0 - - 0.0
30/06:00am 12.0 12.6 11.8 99 0.1 CALM 0 0 0 0 - - 0.0
30/05:30am 11.9 12.4 11.7 99 0.1 CALM 0 0 0 0 - - 0.0
30/05:00am 12.1 12.7 11.9 99 0.1 CALM 0 0 0 0 - - 0.0
30/04:30am 12.1 12.7 11.9 99 0.1 CALM 0 0 0 0 - - 0.0
30/04:00am 12.5 13.2 12.3 99 0.1 CALM 0 0 0 0 - - 0.0
30/03:30am 12.7 13.5 12.4 98 0.2 CALM 0 0 0 0 - - 0.0
30/03:00am 13.0 13.8 12.5 97 0.3 CALM 0 0 0 0 - - 0.0
30/02:30am 13.2 13.9 12.3 94 0.5 CALM 0 0 0 0 - - 0.0
30/02:00am 13.7 14.6 12.8 94 0.5 CALM 0 0 0 0 - - 0.0
30/01:30am 14.3 15.1 12.7 90 0.9 CALM 0 0 0 0 - - 0.0
30/01:00am 15.5 16.5 13.2 86 1.3 CALM 0 0 0 0 - - 0.0
30/12:30am 16.7 16.6 13.4 81 1.9 NNE 6 7 3 4 - - 0.0
30/12:00am 17.4 17.3 13.9 80 2.0 NNE 7 11 4 6 - - 0.0
 
Date/Time
EDT
Temp
°C
App
Temp
°C
Dew
Point
Rel
Hum
%
Delta-T
°C
Wind Press
QNH
hPa
Press
MSL
hPa
Rain
since 9 am
mm
Dir
 
Spd
km/h
Gust
km/h
Spd
kts
Gust
kts
29/11:30pm 17.5 17.5 14.2 81 1.9 NNE 7 11 4 6 - - 0.0
29/11:00pm 17.2 17.2 14.1 82 1.8 NNE 7 11 4 6 - - 0.0
29/10:30pm 16.8 16.5 13.3 80 2.0 NNE 7 9 4 5 - - 0.0
29/10:00pm 17.8 17.3 13.7 77 2.3 NE 9 15 5 8 - - 0.0
29/09:30pm 18.1 17.1 13.4 74 2.7 NE 11 19 6 10 - - 0.0
29/09:00pm 18.2 18.0 13.7 75 2.6 ENE 7 11 4 6 - - 0.0
29/08:30pm 18.0 17.8 13.7 76 2.5 ENE 7 13 4 7 - - 0.0
29/08:00pm 17.8 17.6 13.5 76 2.4 ENE 7 13 4 7 - - 0.0
29/07:30pm 18.2 18.0 13.5 74 2.7 ENE 7 11 4 6 - - 0.0
29/07:00pm 18.7 18.0 13.3 71 3.1 ENE 9 19 5 10 - - 0.0
29/06:30pm 19.5 18.4 13.2 67 3.6 E 11 20 6 11 - - 0.0
29/06:00pm 20.6 19.9 13.3 63 4.2 ENE 9 17 5 9 - - 0.0
29/05:30pm 21.3 19.8 13.2 60 4.7 ENE 13 26 7 14 - - 0.0
29/05:00pm 21.9 20.4 13.0 57 5.1 E 13 26 7 14 - - 0.0
29/04:30pm 22.5 20.5 12.7 54 5.6 NE 15 24 8 13 - - 0.0
29/04:00pm 22.9 21.3 12.8 53 5.8 NE 13 20 7 11 - - 0.0
29/03:30pm 23.2 20.5 11.6 48 6.5 E 17 30 9 16 - - 0.0
29/03:00pm 24.0 21.6 12.6 49 6.6 E 17 28 9 15 - - 0.0

Other Formats:

Comma delimited format used in spreadsheet applications
http://www.bom.gov.au/fwo/IDN60801/IDN60801.94757.axf

JavaScript Object Notation format (JSON) in row-major order
http://www.bom.gov.au/fwo/IDN60801/IDN60801.94757.json